Relevés horaires Bierset (Belgique)


Relevés horaires à Bierset - Lundi 30 Déc. 2019
Heure UTC1 Température [°C] Vent [km/h] Hum. [%] Pres.4 [hPa] Visi. [Km] Nébu. [octa] Préc.5 [mm] Cond.
2m. Res. Ros. Dir.2 Vit. Moy. Raf.3
23:00 5.6 4 -10.4 S 7.4 7.4 14.8 30 1030.5(0.5/3h) 50 0/8 -- --
22:00 5.6 4 -10.8 S 7.4 7.4 11.1 29 1030.5(0.2/3h) 50 0/8 -- --
21:00 6.0 4.5 -10.3 S 7.4 9.3 13.0 30 1030.5(-0.2/3h) 50 0/8 -- --
20:00 6.2 4.7 -10.2 S 7.4 9.3 13.0 30 1029.9(-0.7/3h) 50 0/8 -- --
19:00 6.1 4.6 -9.4 S 7.4 9.3 13.0 32 1030.2(-0.7/3h) 50 0/8 -- --
18:00 6.5 4.6 -8.0 S 9.3 11.1 14.8 35 1030.2(-0.6/3h) 45 0/8 0/12h
--
17:00 7.5 6.2 -7.6 S 7.4 9.3 11.1 33 1030.5(-0.6/3h) 50 0/8 -- --
16:00 8.1 6.5 -7.5 S 9.3 9.3 13.0 32 1030.7(-0.5/3h) 50 0/8 -- --
15:00 9.5 8.2 -7.5 S 9.3 11.1 14.8 29 1030.6(-1.3/3h) 50 0/8 -- --
14:00 10.0 8.8 -6.9 S 9.3 9.3 14.8 30 1031(-1.7/3h) 35 1/8 -- --
13:00 9.7 8.4 -8.7 S 9.3 11.1 14.8 26 1031.1(-1.8/3h) 45 1/8 -- --
12:00 9.0 7.2 -9.6 S 11.1 11.1 20.4 26 1032(-0.7/3h) 45 1/8 0/6h
--
11:00 8.0 6.4 -9.8 S 9.3 11.1 16.7 27 1032.8(-0.3/3h) 45 1/8 -- --
10:00 6.8 5 -10.2 S 9.3 5.6 9.3 28 1033.2(0.1/3h) 50 1/8 -- --
09:00 5.0 2.8 -10.2 S 9.3 11.1 18.5 32 1033(-0.1/3h) 50 1/8 -- --
08:00 4.8 2.6 -10.4 S 9.3 11.1 18.5 32 1032.8(-0.4/3h) 50 2/8 -- --
07:00 4.3 2.5 -10.1 S 7.4 7.4 14.8 34 1032.9(-0.6/3h) 50 4/8 -- --
06:00 4.3 2.5 -10.7 S 7.4 9.3 18.5 33 1033.2(-0.5/3h) 30 5/8 0/12h
--
05:00 5.7 4.1 -13.4 S 7.4 9.3 18.5 24 1033.2(-0.9/3h) 50 7/8 -- --
04:00 5.9 3.9 -14.4 S 9.3 9.3 18.5 22 1033.4(-0.9/3h) 50 7/8 -- --
03:00 5.2 3.1 -11.6 SSE 9.3 9.3 16.7 28 1033.6(-1.1/3h) 50 7/8 -- --
02:00 5.3 3.2 -10.6 SSE 9.3 9.3 14.8 31 1034.1(-0.8/3h) 50 7/8 -- --
01:00 5.4 3.8 -10.9 SSE 7.4 7.4 16.7 30 1034.3(-1.0/3h) 50 7/8 -- --
00:00 5.4 3.8 -11.7 SSE 7.4 11.1 20.4 28 1034.7(-0.9/3h) 50 7/8 0/6h
0/24h
--

1 Coordinated Universal Time. Actuellement il est 01:00 locale et 23:00 UTC.

2 Le vent souffle depuis la direction indiquée vers la direction oposée.

3 Les rafales max. sont disponible 40 min après l'heure du relevé.

4 Pour les stations d'altitude (plus de 600m) le géopotentiel du niveau le plus proche de la pression obligatoire est indiqué.

5 Les stations disposant d'un diffuseur peuvent indiquer "trace". Cela signifie que des précipitations ont touchés le sol mais que la quantité est inférieure à 0.1 mm.

Récapitulatif de la journée
Température [°C] Vent [km/h] Ensoleillement4 [h] Precipitations totale5 [mm] Pression [Hpa]
Min1 Max.2 Moy.3 Max. Min Max.
4.2 10.1 9.4 20.4 0 h 0 min 0 1029.9 1034.7

1 Température minimale relevée entre 18:00 UTC la veille et 18:00 UTC le jour donné.

2 Température maximale relevée entre 06:00 UTC le jour donné et 06:00 UTC le lendemain.

3 Vent moyen de la journée basé sur les relevés horaires.

4 Ensoleillement en heures relevé entre 06:00 UTC la veille et 06:00 UTC le jour donné.

5 Précipitations totales tombées entre 06:00 UTC la jour donné et 06:00 UTC le lendemain.

Graphiques horaires